Time;durP1;ratioP1;P1;durP2;ratioP2;P2;SDS_P1;SDS_P2;PMS_P1;PMS_P2;Temp;Humidity;BMP_temperature;BMP_pressure;BME280_temperature;BME280_humidity;BME280_pressure;Samples;Min_cycle;Max_cycle;Signal;HPM_P1;HPM_P2
2023/09/14 00:00:56;;;;;;;;;20.00;17.00;;;;;22.03;100.00;101893.19;5075934;28;62517;-75
2023/09/14 00:03:21;;;;;;;;;20.33;15.67;;;;;22.03;100.00;101882.44;5078823;28;46890;-76
2023/09/14 00:05:48;;;;;;;;;20.00;17.00;;;;;22.01;100.00;101885.16;5077468;27;69368;-76
2023/09/14 00:08:14;;;;;;;;;17.33;15.67;;;;;21.98;100.00;101883.41;5064809;28;45284;-76
2023/09/14 00:10:39;;;;;;;;;16.33;15.33;;;;;21.93;100.00;101879.03;5078087;27;50358;-76
2023/09/14 00:13:06;;;;;;;;;19.67;19.67;;;;;21.88;100.00;101873.72;5076975;28;45985;-75
2023/09/14 00:15:32;;;;;;;;;17.33;16.33;;;;;21.84;100.00;101871.13;5078232;28;45294;-76
2023/09/14 00:17:57;;;;;;;;;20.67;20.67;;;;;21.82;100.00;101873.84;5077958;27;45521;-76
2023/09/14 00:20:25;;;;;;;;;16.00;16.00;;;;;21.79;100.00;101879.31;5076317;27;45262;-76
2023/09/14 00:22:52;;;;;;;;;22.00;17.00;;;;;21.72;100.00;101877.63;5076700;27;46478;-78
2023/09/14 00:25:18;;;;;;;;;17.33;16.33;;;;;21.72;100.00;101885.69;5077178;27;45212;-76
2023/09/14 00:27:43;;;;;;;;;21.33;20.00;;;;;21.65;100.00;101879.56;5076887;28;45380;-76
2023/09/14 00:30:09;;;;;;;;;18.00;16.00;;;;;21.63;100.00;101877.81;5076733;28;54625;-76
2023/09/14 00:32:39;;;;;;;;;17.00;16.67;;;;;21.62;100.00;101884.09;5077813;27;46484;-76
2023/09/14 00:35:11;;;;;;;;;15.33;15.00;;;;;21.60;100.00;101886.81;5078013;27;45192;-76
2023/09/14 00:37:37;;;;;;;;;20.33;20.33;;;;;21.58;100.00;101887.78;5078236;28;45297;-76
2023/09/14 00:40:06;;;;;;;;;22.00;18.67;;;;;21.56;100.00;101889.56;5077200;28;45290;-77
2023/09/14 00:42:38;;;;;;;;;18.33;18.33;;;;;21.55;100.00;101885.13;5077651;27;46002;-76
2023/09/14 00:45:05;;;;;;;;;17.67;17.67;;;;;21.54;100.00;101894.09;5076620;28;45480;-75
2023/09/14 00:47:30;;;;;;;;;22.00;18.33;;;;;21.54;100.00;101902.16;5076620;28;45277;-76
2023/09/14 00:49:55;;;;;;;;;20.67;18.33;;;;;21.55;100.00;101898.56;5077544;27;61782;-77
2023/09/14 00:52:20;;;;;;;;;23.00;21.67;;;;;21.58;100.00;101895.84;5076457;27;71048;-76
2023/09/14 00:54:46;;;;;;;;;22.33;19.33;;;;;21.51;100.00;101891.44;5076725;27;69305;-76
2023/09/14 00:57:11;;;;;;;;;20.33;20.33;;;;;21.57;100.00;101894.03;5078021;27;48961;-76
2023/09/14 00:59:37;;;;;;;;;21.67;19.00;;;;;21.50;100.00;101898.63;5077705;27;45439;-77
2023/09/14 01:02:03;;;;;;;;;24.33;22.33;;;;;21.52;100.00;101896.81;5076884;27;71293;-76
2023/09/14 01:04:29;;;;;;;;;23.00;22.33;;;;;21.49;100.00;101896.88;5076241;28;45308;-76
2023/09/14 01:06:55;;;;;;;;;30.33;23.67;;;;;21.48;100.00;101896.91;5077808;28;45305;-78
2023/09/14 01:09:21;;;;;;;;;22.67;22.33;;;;;21.48;100.00;101902.28;5077497;27;45399;-76
2023/09/14 01:11:46;;;;;;;;;24.33;22.33;;;;;21.44;100.00;101896.94;5076481;27;64617;-76
2023/09/14 01:14:26;;;;;;;;;22.33;22.33;;;;;21.39;100.00;101893.44;5076589;27;65703;-76
2023/09/14 01:17:09;;;;;;;;;26.00;23.33;;;;;21.32;100.00;101901.66;5063370;28;45261;-76
2023/09/14 01:19:53;;;;;;;;;24.33;21.33;;;;;21.31;100.00;101899.88;5076148;28;45429;-77
2023/09/14 01:22:37;;;;;;;;;25.33;24.33;;;;;21.30;100.00;101898.06;5076972;28;45315;-76
2023/09/14 01:25:35;;;;;;;;;28.33;24.00;;;;;21.28;100.00;101899.88;5076468;28;45400;-76
2023/09/14 01:28:08;;;;;;;;;26.67;23.33;;;;;21.27;100.00;101906.16;5068286;28;45519;-75
2023/09/14 01:30:34;;;;;;;;;28.33;23.67;;;;;21.23;100.00;101897.25;5076289;28;45442;-76
2023/09/14 01:32:59;;;;;;;;;25.33;25.33;;;;;21.18;100.00;101900.03;5075617;27;70503;-77
2023/09/14 01:35:27;;;;;;;;;26.00;21.67;;;;;21.16;100.00;101900.97;5074989;28;63432;-76
2023/09/14 01:37:54;;;;;;;;;24.67;21.33;;;;;21.16;100.00;101907.22;5075060;28;62065;-76
2023/09/14 01:40:20;;;;;;;;;28.33;23.67;;;;;21.13;100.00;101898.31;5076476;27;63604;-76
2023/09/14 01:42:45;;;;;;;;;29.67;26.33;;;;;21.09;100.00;101900.19;5074838;28;67838;-76
2023/09/14 01:45:11;;;;;;;;;28.00;26.00;;;;;21.10;100.00;101903.75;5076718;27;45627;-76
2023/09/14 01:47:36;;;;;;;;;26.33;23.67;;;;;21.07;100.00;101902.00;5077190;28;45515;-75
2023/09/14 01:50:02;;;;;;;;;25.00;25.00;;;;;21.05;100.00;101901.13;5075554;27;63889;-76
2023/09/14 01:52:27;;;;;;;;;17.00;15.00;;;;;21.05;100.00;101905.63;5076107;28;46440;-76
2023/09/14 01:54:53;;;;;;;;;28.33;24.33;;;;;21.04;100.00;101909.19;5074404;28;45338;-76
2023/09/14 01:57:18;;;;;;;;;28.00;23.33;;;;;21.02;100.00;101903.84;5076177;27;62794;-76
2023/09/14 01:59:43;;;;;;;;;22.67;22.00;;;;;21.00;100.00;101903.00;5076079;27;61999;-76
2023/09/14 02:02:09;;;;;;;;;24.33;20.67;;;;;20.98;100.00;101902.13;5075868;27;69143;-76
2023/09/14 02:04:34;;;;;;;;;27.00;23.33;;;;;21.04;100.00;101898.44;5075986;27;64421;-76
2023/09/14 02:06:59;;;;;;;;;21.33;21.33;;;;;21.06;100.00;101896.66;5075811;27;63076;-75
2023/09/14 02:09:25;;;;;;;;;19.33;18.00;;;;;21.07;100.00;101888.56;5074995;27;64498;-75
2023/09/14 02:11:50;;;;;;;;;19.33;18.00;;;;;21.05;100.00;101900.25;5076443;28;46507;-76
2023/09/14 02:14:17;;;;;;;;;21.67;20.00;;;;;21.04;100.00;101895.75;5076375;27;45208;-76
2023/09/14 02:16:42;;;;;;;;;21.00;19.67;;;;;21.00;100.00;101888.69;5075757;27;64335;-76
2023/09/14 02:19:07;;;;;;;;;24.67;23.00;;;;;21.03;100.00;101899.38;5076185;28;50249;-75
2023/09/14 02:21:33;;;;;;;;;24.00;23.00;;;;;21.01;100.00;101895.84;5075427;27;68417;-75
2023/09/14 02:23:58;;;;;;;;;17.33;16.00;;;;;21.00;100.00;101892.25;5075837;27;66050;-76
2023/09/14 02:26:23;;;;;;;;;20.33;16.67;;;;;20.99;100.00;101889.59;5076020;27;45712;-76
2023/09/14 02:28:49;;;;;;;;;19.00;15.33;;;;;20.95;100.00;101887.88;5075710;27;58336;-75
2023/09/14 02:31:15;;;;;;;;;17.00;17.00;;;;;20.91;100.00;101893.28;5075523;27;67525;-76
2023/09/14 02:33:40;;;;;;;;;22.00;18.00;;;;;20.87;100.00;101893.34;5076081;27;45415;-76
2023/09/14 02:36:06;;;;;;;;;18.00;15.00;;;;;20.86;100.00;101888.88;5076578;27;45398;-76
2023/09/14 02:38:31;;;;;;;;;18.00;17.00;;;;;20.80;100.00;101884.50;5076218;27;45533;-75
2023/09/14 02:40:57;;;;;;;;;17.33;16.00;;;;;20.77;100.00;101884.53;5076518;27;45539;-76
2023/09/14 02:43:22;;;;;;;;;17.67;17.00;;;;;20.74;100.00;101881.03;5075285;27;67641;-76
2023/09/14 02:45:47;;;;;;;;;18.33;17.00;;;;;20.70;100.00;101885.53;5076939;27;63472;-76
2023/09/14 02:48:12;;;;;;;;;17.33;16.33;;;;;20.66;100.00;101878.44;5078534;27;62338;-75
2023/09/14 02:50:38;;;;;;;;;17.33;16.33;;;;;20.63;100.00;101876.69;5063583;28;69389;-76
2023/09/14 02:53:03;;;;;;;;;15.67;14.00;;;;;20.62;100.00;101871.34;5079446;27;45381;-75
2023/09/14 02:55:29;;;;;;;;;16.67;15.67;;;;;20.59;100.00;101877.63;5079062;27;63951;-76
2023/09/14 02:57:54;;;;;;;;;20.00;19.00;;;;;20.57;100.00;101881.25;5079044;27;62783;-75
2023/09/14 03:00:19;;;;;;;;;22.00;19.33;;;;;20.53;100.00;101883.09;5078532;27;72067;-76
2023/09/14 03:02:45;;;;;;;;;17.33;15.00;;;;;20.54;100.00;101881.28;5079707;27;45274;-75
2023/09/14 03:05:10;;;;;;;;;18.67;15.00;;;;;20.58;100.00;101875.88;5079697;27;45426;-75
2023/09/14 03:07:37;;;;;;;;;21.67;16.67;;;;;20.54;100.00;101873.25;5077837;28;45195;-76
2023/09/14 03:10:03;;;;;;;;;20.00;16.33;;;;;20.51;100.00;101884.03;5079808;27;46566;-76
2023/09/14 03:12:28;;;;;;;;;20.00;16.67;;;;;20.51;100.00;101878.66;5059297;28;45945;-76
2023/09/14 03:14:54;;;;;;;;;16.67;15.67;;;;;20.45;100.00;101867.94;5079821;27;45458;-76
2023/09/14 03:17:19;;;;;;;;;19.33;18.33;;;;;20.39;100.00;101869.81;5078465;27;62700;-76
2023/09/14 03:19:44;;;;;;;;;12.00;12.00;;;;;20.34;100.00;101868.97;5078430;27;63905;-76
2023/09/14 03:22:10;;;;;;;;;20.67;17.00;;;;;20.33;100.00;101871.69;5078981;27;45393;-76
2023/09/14 03:24:35;;;;;;;;;17.67;17.00;;;;;20.32;100.00;101869.91;5078901;28;45321;-76
2023/09/14 03:27:01;;;;;;;;;18.67;18.00;;;;;20.26;100.00;101867.31;5078299;27;57694;-77
2023/09/14 03:29:27;;;;;;;;;12.33;12.33;;;;;20.22;100.00;101866.47;5078023;27;72115;-76
2023/09/14 03:31:52;;;;;;;;;17.00;12.67;;;;;20.18;100.00;101863.84;5078948;28;45303;-76
2023/09/14 03:34:18;;;;;;;;;16.00;14.67;;;;;20.20;100.00;101854.88;5079222;27;45353;-76
2023/09/14 03:36:45;;;;;;;;;16.67;15.00;;;;;20.18;100.00;101863.84;5079183;27;45329;-76
2023/09/14 03:39:12;;;;;;;;;16.67;15.33;;;;;20.14;100.00;101852.28;5079033;28;46664;-76
2023/09/14 03:41:37;;;;;;;;;18.00;16.00;;;;;20.12;100.00;101849.59;5079062;28;45282;-75
2023/09/14 03:44:03;;;;;;;;;18.33;16.33;;;;;20.08;100.00;101855.00;5078061;28;46111;-76
2023/09/14 03:46:29;;;;;;;;;17.33;16.00;;;;;20.06;100.00;101860.41;5079113;27;45143;-77
2023/09/14 03:48:54;;;;;;;;;16.00;16.00;;;;;19.96;100.00;101855.16;5078086;28;68990;-76
2023/09/14 03:51:19;;;;;;;;;18.00;17.67;;;;;19.96;100.00;101858.72;5078494;27;46918;-77
2023/09/14 03:53:45;;;;;;;;;16.33;16.33;;;;;19.91;100.00;101859.69;5078645;28;45335;-75
2023/09/14 03:56:10;;;;;;;;;18.67;17.67;;;;;19.84;100.00;101857.06;5077400;27;63239;-75
2023/09/14 03:58:36;;;;;;;;;14.00;14.00;;;;;19.83;100.00;101854.41;5077936;28;71744;-76
2023/09/14 04:01:03;;;;;;;;;19.00;15.67;;;;;19.76;100.00;101856.28;5070530;28;45460;-75
2023/09/14 04:03:28;;;;;;;;;15.33;15.33;;;;;19.72;100.00;101859.91;5076978;28;45516;-76
2023/09/14 04:05:53;;;;;;;;;16.00;16.00;;;;;19.80;100.00;101858.00;5078445;28;45336;-76
2023/09/14 04:08:19;;;;;;;;;17.00;15.67;;;;;19.73;100.00;101855.41;5077040;27;72716;-76
2023/09/14 04:10:44;;;;;;;;;11.67;8.67;;;;;19.69;100.00;101853.66;5078523;28;45453;-76
2023/09/14 04:13:28;;;;;;;;;14.00;14.00;;;;;19.68;100.00;101852.78;5078057;27;45464;-75
2023/09/14 04:15:54;;;;;;;;;14.67;14.00;;;;;19.68;100.00;101857.25;5077563;28;45527;-75
2023/09/14 04:18:19;;;;;;;;;18.00;15.00;;;;;19.68;100.00;101854.59;5078031;28;46730;-76
2023/09/14 04:20:49;;;;;;;;;19.33;16.00;;;;;19.69;100.00;101851.00;5078247;28;45318;-76
2023/09/14 04:23:14;;;;;;;;;16.67;14.33;;;;;19.66;100.00;101856.41;5078129;27;45553;-76
2023/09/14 04:25:44;;;;;;;;;19.33;16.67;;;;;19.64;100.00;101851.03;5076222;28;62603;-77
2023/09/14 04:28:14;;;;;;;;;18.00;15.00;;;;;19.62;100.00;101850.19;5077731;27;45704;-74
2023/09/14 04:31:08;;;;;;;;;17.67;15.00;;;;;19.56;100.00;101856.44;5078095;27;45915;-76
2023/09/14 04:33:35;;;;;;;;;16.33;14.67;;;;;19.53;100.00;101853.78;5077478;28;45219;-76
2023/09/14 04:36:02;;;;;;;;;16.33;16.33;;;;;19.53;100.00;101847.53;5078112;27;45703;-75
2023/09/14 04:38:28;;;;;;;;;21.00;19.00;;;;;19.58;100.00;101851.94;5077709;28;46504;-75
2023/09/14 04:40:53;;;;;;;;;14.00;14.00;;;;;19.63;100.00;101857.31;5077661;27;45450;-75
2023/09/14 04:43:20;;;;;;;;;17.67;15.67;;;;;19.63;100.00;101852.81;5077308;27;51087;-75
2023/09/14 04:45:46;;;;;;;;;18.00;16.33;;;;;19.63;100.00;101860.88;5078145;27;45610;-77
2023/09/14 04:48:11;;;;;;;;;15.00;14.00;;;;;19.62;100.00;101866.25;5076750;28;47422;-75
2023/09/14 04:50:37;;;;;;;;;19.33;15.67;;;;;19.62;100.00;101858.22;5076355;28;45539;-75
2023/09/14 04:53:03;;;;;;;;;19.00;18.00;;;;;19.63;100.00;101858.19;5077105;27;65323;-76
2023/09/14 04:55:28;;;;;;;;;16.33;15.67;;;;;19.60;100.00;101858.25;5077397;27;45280;-75
2023/09/14 04:57:53;;;;;;;;;20.00;15.00;;;;;19.60;100.00;101863.59;5076960;27;70847;-76
2023/09/14 05:00:19;;;;;;;;;19.67;18.00;;;;;19.56;100.00;101863.59;5076648;27;69171;-76
2023/09/14 05:02:44;;;;;;;;;17.00;17.00;;;;;19.55;100.00;101875.22;5077790;27;45377;-76
2023/09/14 05:05:10;;;;;;;;;17.33;15.00;;;;;19.53;100.00;101874.34;5077545;27;45397;-75
2023/09/14 05:07:35;;;;;;;;;17.00;17.00;;;;;19.56;100.00;101875.19;5076307;27;59478;-76
2023/09/14 05:10:02;;;;;;;;;17.67;17.67;;;;;19.56;100.00;101874.31;5077079;28;45438;-75
2023/09/14 05:12:28;;;;;;;;;18.33;16.67;;;;;19.54;100.00;101881.47;5077647;28;45283;-76
2023/09/14 05:14:53;;;;;;;;;19.33;17.67;;;;;19.56;100.00;101885.03;5075457;27;45564;-76
2023/09/14 05:17:18;;;;;;;;;17.33;17.33;;;;;19.53;100.00;101880.56;5068684;27;45331;-77
2023/09/14 05:19:44;;;;;;;;;20.33;18.00;;;;;19.54;100.00;101889.50;5072632;28;45380;-77
2023/09/14 05:22:09;;;;;;;;;17.00;16.00;;;;;19.52;100.00;101891.31;5076651;27;45421;-76
2023/09/14 05:24:37;;;;;;;;;19.67;17.00;;;;;19.52;100.00;101889.53;5074434;27;45451;-77
2023/09/14 05:27:03;;;;;;;;;17.33;17.00;;;;;19.43;100.00;101894.06;5076501;27;45293;-76
2023/09/14 05:29:28;;;;;;;;;21.00;19.33;;;;;19.40;100.00;101895.00;5077057;28;45267;-77
2023/09/14 05:31:53;;;;;;;;;19.00;17.00;;;;;19.42;100.00;101897.66;5076387;27;65025;-78
2023/09/14 05:34:19;;;;;;;;;17.33;15.33;;;;;19.38;100.00;101889.63;5076949;28;57929;-77
2023/09/14 05:36:44;;;;;;;;;18.33;18.33;;;;;19.48;100.00;101887.75;5075876;27;68617;-77
2023/09/14 05:39:09;;;;;;;;;19.00;18.33;;;;;19.46;100.00;101888.69;5068854;28;68149;-76
2023/09/14 05:41:35;;;;;;;;;19.33;18.33;;;;;19.49;100.00;101889.53;5075201;28;60171;-76
2023/09/14 05:44:00;;;;;;;;;15.33;15.33;;;;;19.44;100.00;101890.47;5077068;27;45647;-77
2023/09/14 05:46:26;;;;;;;;;21.00;15.67;;;;;19.40;100.00;101891.44;5076826;27;46156;-76
2023/09/14 05:48:51;;;;;;;;;21.00;19.67;;;;;19.44;100.00;101895.84;5075851;27;65302;-77
2023/09/14 05:51:16;;;;;;;;;18.67;17.33;;;;;19.42;100.00;101894.97;5076135;28;45623;-77
2023/09/14 05:53:42;;;;;;;;;19.67;18.00;;;;;19.46;100.00;101907.44;5075157;27;62054;-76
2023/09/14 05:56:07;;;;;;;;;17.33;17.33;;;;;19.49;100.00;101902.03;5075733;28;71728;-77
2023/09/14 05:58:32;;;;;;;;;19.33;19.33;;;;;19.48;100.00;101911.88;5075479;27;68966;-77
2023/09/14 06:01:00;;;;;;;;;18.00;18.00;;;;;19.51;100.00;101914.53;5076537;28;47377;-77
2023/09/14 06:03:25;;;;;;;;;16.00;16.00;;;;;19.54;100.00;101909.13;5076292;27;45576;-77
2023/09/14 06:05:50;;;;;;;;;19.00;18.00;;;;;19.57;100.00;101908.22;5076383;28;46633;-76
2023/09/14 06:08:16;;;;;;;;;17.67;17.67;;;;;19.58;100.00;101908.22;5075765;27;64502;-77
2023/09/14 06:10:41;;;;;;;;;17.00;17.00;;;;;19.62;100.00;101914.47;5075617;28;60629;-76
2023/09/14 06:13:06;;;;;;;;;20.00;20.00;;;;;19.68;100.00;101916.22;5066396;27;57201;-77
2023/09/14 06:15:32;;;;;;;;;19.33;18.00;;;;;19.67;100.00;101918.00;5068437;28;73270;-77
2023/09/14 06:17:58;;;;;;;;;18.00;18.00;;;;;19.70;100.00;101917.97;5072016;27;45412;-78
2023/09/14 06:20:23;;;;;;;;;14.33;14.33;;;;;19.73;100.00;101925.09;5073196;27;45146;-78
2023/09/14 06:22:48;;;;;;;;;19.67;18.33;;;;;19.74;100.00;101927.75;5076093;28;45536;-78
2023/09/14 06:25:14;;;;;;;;;21.67;18.67;;;;;19.77;100.00;101922.38;5068893;28;45669;-77
2023/09/14 06:27:39;;;;;;;;;20.67;20.67;;;;;19.77;100.00;101917.00;5075274;27;45433;-78
2023/09/14 06:30:06;;;;;;;;;20.67;17.67;;;;;19.78;100.00;101923.25;5076352;27;49471;-77
2023/09/14 06:32:31;;;;;;;;;17.33;16.00;;;;;19.82;100.00;101927.69;5072077;28;45423;-77
2023/09/14 06:34:56;;;;;;;;;17.00;17.00;;;;;19.92;100.00;101925.78;5075515;28;45717;-75
2023/09/14 06:37:22;;;;;;;;;23.67;19.67;;;;;19.90;100.00;101920.44;5065337;28;67648;-76
2023/09/14 06:39:47;;;;;;;;;14.00;13.67;;;;;19.87;100.00;101923.19;5068212;28;46164;-76
2023/09/14 06:42:12;;;;;;;;;18.67;17.33;;;;;19.92;100.00;101917.75;5070482;28;45618;-74
2023/09/14 06:44:38;;;;;;;;;19.00;19.00;;;;;19.89;100.00;101922.25;5066070;27;66587;-74
2023/09/14 06:47:03;;;;;;;;;21.33;18.33;;;;;19.86;100.00;101916.91;5074018;28;65658;-75
2023/09/14 06:49:28;;;;;;;;;26.67;23.67;;;;;19.89;100.00;101924.94;5069851;27;50365;-76
2023/09/14 06:55:30;;;;;;;;;23.67;20.00;;;;;19.92;100.00;101925.78;5076648;28;45606;-75
2023/09/14 06:57:55;;;;;;;;;20.00;20.00;;;;;19.94;100.00;101921.31;5064922;27;72432;-75
2023/09/14 07:00:21;;;;;;;;;21.00;19.00;;;;;19.94;100.00;101926.69;5074320;27;45548;-75
2023/09/14 07:02:52;;;;;;;;;21.00;21.00;;;;;19.94;100.00;101926.69;5075309;27;45589;-76
2023/09/14 07:05:17;;;;;;;;;26.33;21.00;;;;;19.94;100.00;101932.94;5072972;28;45696;-74
2023/09/14 07:07:43;;;;;;;;;21.67;18.67;;;;;19.96;100.00;101939.16;5074128;28;45435;-75
2023/09/14 07:10:08;;;;;;;;;21.67;21.00;;;;;19.99;100.00;101944.50;5076400;27;45794;-76
2023/09/14 07:12:35;;;;;;;;;24.00;21.00;;;;;20.02;100.00;101955.16;5076587;28;45583;-75
2023/09/14 07:15:00;;;;;;;;;23.33;21.67;;;;;20.22;100.00;101935.31;5072425;28;46006;-74
2023/09/14 07:17:26;;;;;;;;;23.33;22.33;;;;;20.21;100.00;101939.78;5073695;28;45308;-74
2023/09/14 07:19:51;;;;;;;;;28.00;23.00;;;;;20.25;100.00;101937.97;5073725;27;45563;-74
2023/09/14 07:22:18;;;;;;;;;21.00;21.00;;;;;20.25;100.00;101943.34;5068273;28;45558;-76
2023/09/14 07:24:43;;;;;;;;;21.33;21.00;;;;;20.30;100.00;101933.44;5075243;27;45683;-75
2023/09/14 07:27:09;;;;;;;;;25.67;23.00;;;;;20.40;100.00;101929.75;5068627;27;70372;-75
2023/09/14 07:29:34;;;;;;;;;19.33;19.33;;;;;20.40;100.00;101930.63;5071368;27;64489;-76
2023/09/14 07:32:00;;;;;;;;;22.67;22.67;;;;;20.42;100.00;101936.84;5069240;27;45424;-75
2023/09/14 07:34:25;;;;;;;;;24.33;24.33;;;;;20.40;100.00;101933.31;5066290;28;46308;-75
2023/09/14 07:36:50;;;;;;;;;29.67;24.67;;;;;20.47;100.00;101938.63;5068254;27;54052;-76
2023/09/14 07:39:16;;;;;;;;;33.67;26.00;;;;;20.47;100.00;101922.53;5066274;27;66264;-76
2023/09/14 07:41:42;;;;;;;;;25.33;25.33;;;;;20.48;100.00;101930.56;5074676;28;63779;-76
2023/09/14 07:44:07;;;;;;;;;24.00;24.00;;;;;20.51;100.00;101919.78;5075788;27;45442;-75
2023/09/14 07:46:33;;;;;;;;;30.00;27.67;;;;;20.56;100.00;101936.72;5067744;28;45438;-76
2023/09/14 07:48:59;;;;;;;;;23.67;23.67;;;;;20.56;100.00;101930.44;5075076;28;45526;-77
2023/09/14 07:51:24;;;;;;;;;27.67;27.33;;;;;20.62;100.00;101930.41;5067133;27;45583;-75
2023/09/14 07:53:50;;;;;;;;;30.67;28.00;;;;;20.69;100.00;101926.72;5075624;27;66765;-76
2023/09/14 07:56:15;;;;;;;;;30.33;25.33;;;;;20.74;100.00;101935.59;5075935;27;46138;-76
2023/09/14 07:58:41;;;;;;;;;34.67;29.00;;;;;20.81;100.00;101926.53;5075372;27;45437;-76
2023/09/14 08:01:07;;;;;;;;;30.67;28.33;;;;;20.84;100.00;101934.56;5076336;27;45345;-75
2023/09/14 08:03:32;;;;;;;;;28.67;27.67;;;;;20.97;100.00;101942.44;5073131;27;53103;-77
2023/09/14 08:05:57;;;;;;;;;27.67;27.00;;;;;20.99;100.00;101935.25;5075670;27;61887;-76
2023/09/14 08:08:23;;;;;;;;;28.00;25.33;;;;;21.06;100.00;101939.63;5075282;28;57770;-76
2023/09/14 08:10:52;;;;;;;;;32.67;29.33;;;;;21.13;100.00;101943.97;5074262;28;62148;-77
2023/09/14 08:13:18;;;;;;;;;28.33;27.00;;;;;21.20;100.00;101940.31;5187040;22;46271;-76
2023/09/14 08:15:43;;;;;;;;;33.67;29.33;;;;;21.21;100.00;101951.94;5067403;28;45941;-74
2023/09/14 08:18:09;;;;;;;;;31.00;28.67;;;;;21.28;100.00;101950.91;5073068;27;66001;-75
2023/09/14 08:20:42;;;;;;;;;33.67;29.33;;;;;21.32;100.00;101941.94;5065973;27;61740;-76
2023/09/14 08:23:09;;;;;;;;;37.00;30.00;;;;;21.38;100.00;101944.53;5072423;28;46565;-76
2023/09/14 08:25:35;;;;;;;;;29.67;28.33;;;;;21.40;100.00;101942.69;5076046;28;45600;-76
2023/09/14 08:28:01;;;;;;;;;33.33;31.67;;;;;21.48;100.00;101945.28;5071906;28;45746;-76
2023/09/14 08:30:26;;;;;;;;;37.33;31.00;;;;;21.52;100.00;101946.97;5073258;27;45326;-76
2023/09/14 08:32:52;;;;;;;;;32.67;30.00;;;;;21.60;100.00;101939.69;5068031;28;69430;-75
2023/09/14 08:35:25;;;;;;;;;34.33;30.33;;;;;21.71;100.00;101943.06;5076439;27;45345;-76
2023/09/14 08:37:54;;;;;;;;;32.67;28.33;;;;;21.78;100.00;101949.22;5081667;22;45476;-77
2023/09/14 08:40:20;;;;;;;;;35.33;32.00;;;;;21.77;100.00;101948.34;5071899;27;45885;-76
2023/09/14 08:42:51;;;;;;;;;31.33;29.33;;;;;21.81;100.00;101942.00;5072331;27;47750;-76
2023/09/14 08:45:25;;;;;;;;;29.33;28.33;;;;;21.90;100.00;101944.53;5075088;27;45412;-76
2023/09/14 08:47:52;;;;;;;;;32.00;30.67;;;;;21.90;100.00;101939.16;5074186;27;45512;-76
2023/09/14 08:50:19;;;;;;;;;39.67;31.67;;;;;21.98;100.00;101942.56;5072021;28;45443;-78
2023/09/14 08:52:45;;;;;;;;;34.67;32.33;;;;;22.07;100.00;101936.13;5075262;28;47488;-76
2023/09/14 08:55:11;;;;;;;;;39.33;34.00;;;;;22.15;100.00;101942.28;5073422;27;45552;-76
2023/09/14 08:57:40;;;;;;;;;38.33;32.33;;;;;22.20;100.00;101937.69;5074177;27;45441;-76
2023/09/14 09:00:17;;;;;;;;;32.33;28.00;;;;;22.27;100.00;101943.88;5076567;27;45555;-76
2023/09/14 09:02:51;;;;;;;;;32.33;27.67;;;;;22.42;100.00;101948.91;5065912;27;46736;-76
2023/09/14 09:05:18;;;;;;;;;31.33;31.33;;;;;22.61;100.00;101945.84;5075226;27;45549;-76
2023/09/14 09:07:44;;;;;;;;;38.67;31.67;;;;;22.79;100.00;101948.13;5069672;27;45596;-77
2023/09/14 09:10:31;;;;;;;;;33.67;31.33;;;;;22.91;100.00;101942.53;5073015;28;45560;-77
2023/09/14 09:13:03;;;;;;;;;35.00;32.33;;;;;23.00;100.00;101936.91;5070895;28;45613;-77
2023/09/14 09:15:36;;;;;;;;;37.00;31.67;;;;;23.15;100.00;101926.72;5062296;28;45430;-77
2023/09/14 09:18:09;;;;;;;;;41.67;33.33;;;;;23.31;100.00;101925.41;5063624;28;45456;-78
2023/09/14 09:20:37;;;;;;;;;29.67;27.67;;;;;23.45;100.00;101925.97;5069951;28;45476;-77
2023/09/14 09:23:03;;;;;;;;;39.00;30.33;;;;;23.56;100.00;101920.31;5068755;28;45567;-77
2023/09/14 09:25:32;;;;;;;;;37.67;33.33;;;;;23.65;100.00;101916.50;5071353;28;45511;-78
2023/09/14 09:27:58;;;;;;;;;31.00;28.00;;;;;23.88;100.00;101919.50;5067929;28;45478;-78
2023/09/14 09:30:31;;;;;;;;;26.00;25.33;;;;;24.04;100.00;101910.03;5071178;28;46134;-76
2023/09/14 09:32:56;;;;;;;;;40.33;35.00;;;;;24.35;100.00;101911.91;5064049;28;47944;-76
2023/09/14 09:35:24;;;;;;;;;35.33;32.67;;;;;24.52;100.00;101908.72;5076263;27;45538;-76
2023/09/14 09:37:50;;;;;;;;;29.33;29.00;;;;;24.65;100.00;101904.69;5076008;27;45475;-75
2023/09/14 09:40:17;;;;;;;;;33.00;32.00;;;;;24.79;100.00;101904.28;5069761;27;45520;-75
2023/09/14 09:42:43;;;;;;;;;29.67;28.33;;;;;24.94;100.00;101895.69;5074025;28;47567;-75
2023/09/14 09:45:09;;;;;;;;;37.67;31.67;;;;;24.98;100.00;101897.38;5075517;27;45425;-76
2023/09/14 09:47:35;;;;;;;;;36.00;33.67;;;;;25.20;100.00;101884.06;5073747;27;45665;-77
2023/09/14 09:50:04;;;;;;;;;30.00;29.33;;;;;25.36;100.00;101884.44;5075484;28;45345;-76
2023/09/14 09:52:32;;;;;;;;;30.67;27.33;;;;;25.56;100.00;101889.16;5075021;27;47341;-77
2023/09/14 09:54:58;;;;;;;;;26.33;25.33;;;;;25.68;100.00;101886.03;5072048;28;45638;-78
2023/09/14 09:57:28;;;;;;;;;31.33;28.00;;;;;25.74;100.00;101864.19;5071450;27;45926;-77
2023/09/14 09:59:53;;;;;;;;;31.67;26.67;;;;;25.68;100.00;101863.50;5076193;27;45113;-78
2023/09/14 10:02:29;;;;;;;;;31.33;26.67;;;;;25.59;100.00;101870.13;5065658;27;46495;-78
2023/09/14 10:04:54;;;;;;;;;30.33;29.00;;;;;25.55;100.00;101860.34;5068793;27;45597;-77
2023/09/14 10:07:23;;;;;;;;;30.00;27.67;;;;;25.47;100.00;101863.31;5070512;27;64221;-78
2023/09/14 10:09:53;;;;;;;;;35.33;31.33;;;;;25.44;100.00;101866.13;5073313;28;45417;-76
2023/09/14 10:12:19;;;;;;;;;24.67;24.67;;;;;25.41;100.00;101868.03;5073275;27;46940;-74
2023/09/14 10:14:46;;;;;;;;;22.33;20.00;;;;;25.42;100.00;101857.19;5070230;27;46936;-77
2023/09/14 10:17:16;;;;;;;;;23.33;21.00;;;;;25.45;100.00;101858.88;5073022;28;62356;-78
2023/09/14 10:19:47;;;;;;;;;17.33;16.33;;;;;25.48;100.00;101851.56;5072175;28;45611;-78
2023/09/14 10:22:13;;;;;;;;;21.00;19.00;;;;;25.57;100.00;101851.25;5069608;28;47521;-77
2023/09/14 10:24:38;;;;;;;;;12.33;10.00;;;;;25.59;100.00;101843.94;5075154;28;45424;-79
2023/09/14 10:27:04;;;;;;;;;11.67;9.33;;;;;25.63;100.00;101822.22;5071940;28;46270;-79
2023/09/14 10:29:32;;;;;;;;;17.33;12.67;;;;;25.58;100.00;101825.97;5068708;28;45647;-77
2023/09/14 10:31:57;;;;;;;;;15.00;12.00;;;;;25.53;100.00;101829.78;5074811;27;72397;-78
2023/09/14 10:34:23;;;;;;;;;23.00;19.33;;;;;25.49;100.00;101834.41;5073527;28;72208;-78
2023/09/14 10:36:50;;;;;;;;;23.67;20.00;;;;;25.49;100.00;101815.47;5075755;28;58010;-75
2023/09/14 10:39:21;;;;;;;;;19.33;17.33;;;;;25.50;100.00;101803.69;5076626;27;45287;-75
2023/09/14 10:41:47;;;;;;;;;19.67;19.33;;;;;25.51;100.00;101805.47;5076167;27;46384;-75
2023/09/14 10:44:14;;;;;;;;;19.00;17.00;;;;;25.58;100.00;101800.75;5075446;27;67088;-75
2023/09/14 10:46:42;;;;;;;;;17.67;14.67;;;;;25.65;100.00;101810.38;5075579;28;45400;-77
2023/09/14 10:49:08;;;;;;;;;23.33;20.33;;;;;25.73;100.00;101805.59;5066308;28;45722;-76
2023/09/14 10:51:33;;;;;;;;;21.33;17.00;;;;;25.81;100.00;101795.38;5075672;28;45582;-76
2023/09/14 10:54:00;;;;;;;;;17.67;10.33;;;;;25.83;100.00;101793.53;5075220;27;61120;-75
2023/09/14 10:56:33;;;;;;;;;12.00;10.33;;;;;25.80;100.00;101784.63;5069165;27;45571;-77
2023/09/14 10:59:08;;;;;;;;;11.00;9.00;;;;;25.79;100.00;101774.75;5074669;27;45432;-76
2023/09/14 11:01:44;;;;;;;;;10.33;10.00;;;;;25.79;100.00;101777.47;5073647;27;46627;-76
2023/09/14 11:04:14;;;;;;;;;11.33;11.33;;;;;25.85;100.00;101779.94;5074468;27;45465;-76